createdAt,value
2023-05-12T00:01:13.697Z,34.60
2023-05-12T00:03:41.132Z,34.40
2023-05-12T00:06:08.231Z,48.20
2023-05-12T00:08:35.014Z,30.90
2023-05-12T00:11:02.187Z,28.50
2023-05-12T00:13:29.234Z,31.60
2023-05-12T00:15:58.164Z,32.70
2023-05-12T00:18:25.875Z,35.10
2023-05-12T00:20:54.557Z,31.10
2023-05-12T00:23:22.059Z,28.40
2023-05-12T00:25:49.434Z,39.10
2023-05-12T00:28:17.571Z,22.10
2023-05-12T00:30:44.382Z,31.40
2023-05-12T00:33:11.302Z,25.90
2023-05-12T00:35:38.171Z,21.80
2023-05-12T00:38:05.332Z,23.90
2023-05-12T00:40:33.495Z,26.30
2023-05-12T00:43:00.866Z,28.90
2023-05-12T00:45:29.149Z,26.10
2023-05-12T00:47:56.225Z,25.50
2023-05-12T00:50:22.981Z,23.50
2023-05-12T00:52:49.993Z,24.20
2023-05-12T00:55:17.014Z,20.40
2023-05-12T00:57:43.936Z,22.30
2023-05-12T01:00:12.368Z,20.70
2023-05-12T01:02:41.601Z,21.00
2023-05-12T01:05:10.947Z,25.30
2023-05-12T01:07:39.059Z,22.10
2023-05-12T01:10:26.814Z,24.40
2023-05-12T01:12:54.254Z,19.70
2023-05-12T01:15:21.026Z,27.70
2023-05-12T01:17:57.055Z,34.20
2023-05-12T01:20:25.402Z,20.80
2023-05-12T01:22:52.874Z,23.70
2023-05-12T01:25:20.894Z,23.60
2023-05-12T01:27:47.575Z,17.60
2023-05-12T01:30:18.285Z,21.80
2023-05-12T01:32:45.708Z,20.90
2023-05-12T01:35:12.786Z,22.70
2023-05-12T01:37:45.874Z,31.20
2023-05-12T01:40:12.807Z,27.70
2023-05-12T01:42:41.337Z,25.00
2023-05-12T01:47:37.056Z,33.30
2023-05-12T01:50:06.937Z,27.40
2023-05-12T01:52:34.069Z,19.70
2023-05-12T01:55:00.938Z,20.00
2023-05-12T01:57:32.265Z,28.50
2023-05-12T02:00:02.304Z,25.10
2023-05-12T02:02:33.307Z,29.80
2023-05-12T02:05:00.338Z,27.00
2023-05-12T02:07:27.087Z,27.70
2023-05-12T02:09:54.002Z,29.60
2023-05-12T02:12:22.018Z,27.60
2023-05-12T02:14:49.285Z,27.90
2023-05-12T02:17:16.721Z,26.50
2023-05-12T02:19:43.492Z,33.30
2023-05-12T02:22:11.149Z,32.70
2023-05-12T02:24:38.607Z,33.70
2023-05-12T02:27:05.387Z,26.10
2023-05-12T02:29:32.701Z,36.60
2023-05-12T02:31:59.501Z,42.00
2023-05-12T02:34:26.251Z,32.70
2023-05-12T02:36:53.619Z,16.60
2023-05-12T02:39:20.599Z,21.60
2023-05-12T02:41:47.420Z,19.00
2023-05-12T02:44:16.093Z,23.60
2023-05-12T02:46:42.959Z,16.10
2023-05-12T02:49:09.939Z,19.30
2023-05-12T02:51:36.700Z,27.60
2023-05-12T02:54:03.580Z,21.50
2023-05-12T02:56:31.940Z,26.40
2023-05-12T02:59:00.924Z,19.90
2023-05-12T03:01:27.702Z,22.40
2023-05-12T03:03:55.377Z,19.80
2023-05-12T03:06:22.197Z,22.60
2023-05-12T03:08:49.022Z,20.30
2023-05-12T03:11:15.860Z,17.00
2023-05-12T03:13:42.875Z,15.40
2023-05-12T03:16:09.763Z,17.10
2023-05-12T03:18:36.763Z,25.30
2023-05-12T03:21:03.645Z,13.20
2023-05-12T03:23:30.944Z,15.30
2023-05-12T03:25:58.125Z,20.70
2023-05-12T03:28:25.575Z,15.40
2023-05-12T03:30:52.346Z,17.20
2023-05-12T03:33:19.171Z,23.60
2023-05-12T03:35:46.065Z,25.20
2023-05-12T03:38:12.970Z,21.80
2023-05-12T03:40:40.128Z,20.60
2023-05-12T03:43:06.847Z,25.50
2023-05-12T03:45:34.005Z,22.20
2023-05-12T03:48:00.995Z,23.40
2023-05-12T03:50:27.754Z,20.70
2023-05-12T03:52:55.529Z,22.60
2023-05-12T03:55:22.290Z,27.10
2023-05-12T03:57:49.612Z,26.30
2023-05-12T04:00:18.029Z,64.80
2023-05-12T04:02:46.558Z,24.00
2023-05-12T04:05:14.110Z,14.20
2023-05-12T04:07:45.389Z,14.20
2023-05-12T04:10:12.417Z,47.70
2023-05-12T04:12:39.187Z,17.80
2023-05-12T04:15:07.932Z,11.00
2023-05-12T04:17:36.510Z,14.00
2023-05-12T04:20:06.729Z,14.70
2023-05-12T04:22:33.802Z,13.30
2023-05-12T04:25:00.521Z,11.60
2023-05-12T04:27:27.361Z,9.70
2023-05-12T04:29:54.328Z,15.40
2023-05-12T04:32:22.460Z,14.40
2023-05-12T04:34:49.248Z,15.70
2023-05-12T04:37:16.011Z,14.30
2023-05-12T04:39:42.905Z,11.40
2023-05-12T04:42:09.766Z,7.20
2023-05-12T04:44:37.539Z,15.10
2023-05-12T04:47:04.870Z,9.80
2023-05-12T04:49:31.665Z,12.50
2023-05-12T04:51:58.473Z,15.20
2023-05-12T04:54:25.914Z,11.80
2023-05-12T04:56:53.231Z,17.40
2023-05-12T04:59:21.389Z,12.60
2023-05-12T05:01:50.396Z,9.50
2023-05-12T05:04:17.695Z,14.90
2023-05-12T05:06:45.537Z,14.80
2023-05-12T05:09:12.963Z,10.90
2023-05-12T05:11:40.078Z,33.10
2023-05-12T05:14:07.474Z,10.00
2023-05-12T05:16:35.872Z,11.20
2023-05-12T05:19:06.493Z,25.10
2023-05-12T05:21:36.912Z,13.30
2023-05-12T05:24:04.074Z,10.60
2023-05-12T05:26:30.956Z,12.90
2023-05-12T05:28:59.305Z,6.70
2023-05-12T05:31:28.165Z,14.50
2023-05-12T05:33:55.109Z,13.40
2023-05-12T05:36:26.150Z,10.40
2023-05-12T05:38:53.599Z,11.40
2023-05-12T05:43:49.574Z,5.80
2023-05-12T05:46:16.392Z,9.30
2023-05-12T05:48:43.283Z,12.30
2023-05-12T05:51:11.095Z,15.20
2023-05-12T05:53:39.608Z,10.10
2023-05-12T05:58:33.487Z,7.60
2023-05-12T06:01:02.219Z,10.00
2023-05-12T06:03:29.491Z,7.80
2023-05-12T06:05:56.672Z,7.20
2023-05-12T06:08:25.764Z,6.30
2023-05-12T06:10:54.412Z,5.20
2023-05-12T06:13:21.579Z,10.20
2023-05-12T06:15:48.282Z,6.40
2023-05-12T06:18:15.654Z,71.10
2023-05-12T06:20:42.673Z,8.80
2023-05-12T06:23:09.485Z,8.00
2023-05-12T06:25:36.376Z,9.30
2023-05-12T06:28:03.224Z,11.50
2023-05-12T06:30:30.139Z,8.60
2023-05-12T06:32:57.158Z,9.80
2023-05-12T06:35:23.935Z,5.40
2023-05-12T06:37:51.370Z,4.00
2023-05-12T06:40:18.185Z,9.00
2023-05-12T06:42:45.169Z,7.40
2023-05-12T06:45:14.512Z,20.20
2023-05-12T06:47:41.561Z,6.40
2023-05-12T06:50:08.464Z,11.10
2023-05-12T06:52:35.378Z,6.30
2023-05-12T06:55:02.778Z,5.90
2023-05-12T06:57:30.646Z,8.80
2023-05-12T06:59:57.376Z,7.10
2023-05-12T07:02:24.192Z,4.70
2023-05-12T07:04:51.020Z,6.70
2023-05-12T07:07:18.325Z,7.40
2023-05-12T07:09:45.585Z,5.50
2023-05-12T07:12:12.632Z,3.50
2023-05-12T07:14:40.634Z,7.90
2023-05-12T07:17:07.362Z,4.20
2023-05-12T07:19:35.202Z,6.80
2023-05-12T07:22:02.118Z,8.00
2023-05-12T07:24:29.156Z,14.60
2023-05-12T07:26:56.246Z,6.60
2023-05-12T07:29:23.034Z,31.10
2023-05-12T07:31:49.935Z,6.80
2023-05-12T07:34:17.156Z,5.40
2023-05-12T07:36:43.946Z,7.20
2023-05-12T07:39:10.655Z,3.80
2023-05-12T07:41:41.442Z,7.00
2023-05-12T07:44:08.216Z,3.70
2023-05-12T07:46:35.793Z,15.60
2023-05-12T07:49:02.703Z,4.90
2023-05-12T07:51:29.666Z,4.20
2023-05-12T07:53:57.375Z,5.00
2023-05-12T07:56:24.266Z,7.00
2023-05-12T07:58:51.185Z,7.60
2023-05-12T08:01:18.091Z,5.10
2023-05-12T08:03:45.141Z,36.30
2023-05-12T08:06:12.074Z,5.00
2023-05-12T08:08:39.033Z,5.20
2023-05-12T08:11:12.110Z,5.00
2023-05-12T08:13:38.938Z,5.20
2023-05-12T08:16:07.649Z,5.30
2023-05-12T08:18:35.403Z,6.70
2023-05-12T08:21:02.896Z,7.70
2023-05-12T08:23:30.754Z,4.70
2023-05-12T08:25:57.470Z,3.90
2023-05-12T08:28:24.765Z,5.40
2023-05-12T08:30:51.501Z,2.90
2023-05-12T08:33:18.512Z,5.30
2023-05-12T08:35:45.352Z,7.40
2023-05-12T08:38:12.286Z,4.80
2023-05-12T08:41:01.283Z,6.00
2023-05-12T08:43:37.442Z,4.10
2023-05-12T08:46:04.874Z,6.40
2023-05-12T08:48:34.074Z,2.50
2023-05-12T08:51:02.369Z,3.90
2023-05-12T08:53:29.853Z,8.40
2023-05-12T08:57:09.419Z,3.50
2023-05-12T08:58:44.223Z,4.70
2023-05-12T09:01:12.065Z,5.60
2023-05-12T09:08:34.245Z,5.90
2023-05-12T09:11:01.937Z,3.60
2023-05-12T09:13:49.167Z,5.70
2023-05-12T09:16:19.613Z,4.20
2023-05-12T09:18:51.172Z,3.10
2023-05-12T09:21:18.685Z,3.40
2023-05-12T09:24:12.243Z,4.10
2023-05-12T09:26:52.789Z,6.30
2023-05-12T09:29:30.068Z,3.50
2023-05-12T09:32:02.333Z,5.70
2023-05-12T09:34:40.300Z,5.50
2023-05-12T09:37:07.691Z,6.30
2023-05-12T09:39:35.499Z,4.90
2023-05-12T09:42:02.829Z,6.60
2023-05-12T09:44:31.328Z,4.90
2023-05-12T09:47:08.434Z,6.00
2023-05-12T09:49:35.807Z,4.20
2023-05-12T09:52:04.377Z,2.10
2023-05-12T09:54:31.956Z,3.70
2023-05-12T09:57:02.164Z,10.00
2023-05-12T09:59:32.161Z,8.40
2023-05-12T10:02:01.319Z,21.60
2023-05-12T10:04:31.383Z,7.50
2023-05-12T10:06:59.018Z,4.70
2023-05-12T10:09:34.481Z,3.50
2023-05-12T10:12:02.623Z,3.00
2023-05-12T10:14:29.684Z,7.50
2023-05-12T10:16:56.558Z,7.50
2023-05-12T10:19:23.432Z,3.90
2023-05-12T10:21:50.245Z,3.00
2023-05-12T10:24:17.168Z,5.90
2023-05-12T10:26:44.091Z,2.70
2023-05-12T10:29:11.418Z,3.70
2023-05-12T10:31:38.361Z,3.40
2023-05-12T10:34:06.555Z,3.10
2023-05-12T10:39:20.280Z,4.30
2023-05-12T10:41:47.071Z,3.50
2023-05-12T10:44:13.966Z,3.00
2023-05-12T10:46:41.322Z,5.40
2023-05-12T10:49:11.962Z,4.00
2023-05-12T10:51:42.533Z,6.10
2023-05-12T10:54:10.924Z,5.80
2023-05-12T10:56:38.348Z,4.30
2023-05-12T10:59:13.181Z,6.50
2023-05-12T11:01:41.777Z,6.40
2023-05-12T11:04:16.473Z,5.70
2023-05-12T11:06:45.109Z,16.40
2023-05-12T11:09:13.583Z,8.60
2023-05-12T11:11:41.088Z,3.50
2023-05-12T11:14:07.944Z,5.50
2023-05-12T11:16:41.763Z,4.40
2023-05-12T11:19:09.691Z,3.70
2023-05-12T11:24:04.504Z,3.50
2023-05-12T11:26:31.702Z,2.90
2023-05-12T11:28:58.711Z,9.30
2023-05-12T11:31:25.857Z,2.10
2023-05-12T11:34:12.054Z,3.40
2023-05-12T11:36:41.908Z,4.00
2023-05-12T11:39:20.204Z,8.00
2023-05-12T11:41:47.545Z,5.60
2023-05-12T11:44:21.075Z,6.20
2023-05-12T11:47:02.082Z,4.70
2023-05-12T11:49:30.433Z,4.00
2023-05-12T11:52:01.963Z,6.50
2023-05-12T11:54:29.599Z,3.10
2023-05-12T11:56:56.976Z,4.70
2023-05-12T11:59:35.177Z,9.10
2023-05-12T12:02:03.040Z,4.20
2023-05-12T12:04:42.418Z,9.00
2023-05-12T12:07:09.344Z,2.80
2023-05-12T12:09:37.937Z,2.50
2023-05-12T12:12:05.783Z,2.80
2023-05-12T12:14:34.453Z,6.50
2023-05-12T12:17:01.694Z,4.40
2023-05-12T12:19:28.918Z,3.50
2023-05-12T12:21:56.582Z,3.50
2023-05-12T12:24:24.116Z,3.50
2023-05-12T12:26:50.881Z,3.50
2023-05-12T12:29:19.314Z,6.20
2023-05-12T12:34:12.896Z,3.80
2023-05-12T12:36:40.562Z,9.70
2023-05-12T12:39:07.431Z,9.10
2023-05-12T12:41:34.341Z,4.50
2023-05-12T12:44:02.002Z,3.70
2023-05-12T12:46:29.405Z,7.10
2023-05-12T12:48:57.657Z,4.70
2023-05-12T12:51:28.447Z,2.70
2023-05-12T12:53:59.511Z,5.60
2023-05-12T12:56:26.297Z,3.80
2023-05-12T12:58:53.116Z,3.50
2023-05-12T13:01:20.001Z,4.80
2023-05-12T13:03:46.773Z,2.80
2023-05-12T13:06:14.118Z,4.50
2023-05-12T13:08:42.224Z,3.40
2023-05-12T13:11:10.860Z,4.00
2023-05-12T13:13:37.721Z,4.60
2023-05-12T13:16:04.728Z,4.50
2023-05-12T13:18:32.228Z,2.60
2023-05-12T13:20:59.167Z,23.00
2023-05-12T13:23:26.799Z,6.90
2023-05-12T13:25:53.569Z,5.80
2023-05-12T13:28:20.412Z,5.00
2023-05-12T13:30:47.271Z,11.60
2023-05-12T13:33:14.132Z,2.50
2023-05-12T13:35:40.905Z,1.80
2023-05-12T13:38:10.173Z,3.60
2023-05-12T13:40:37.027Z,3.00
2023-05-12T13:43:03.787Z,2.60
2023-05-12T13:45:33.136Z,4.60
2023-05-12T13:47:59.993Z,4.80
2023-05-12T13:50:33.537Z,2.70
2023-05-12T13:53:32.728Z,5.30
2023-05-12T13:56:16.927Z,3.00
2023-05-12T13:58:44.304Z,7.10
2023-05-12T14:01:11.254Z,2.50
2023-05-12T14:03:38.356Z,5.00
2023-05-12T14:06:06.313Z,7.90
2023-05-12T14:08:33.356Z,8.40
2023-05-12T14:11:00.607Z,8.20
2023-05-12T14:13:27.397Z,5.70
2023-05-12T14:15:54.396Z,8.60
2023-05-12T14:18:21.473Z,2.40
2023-05-12T14:20:48.426Z,11.10
2023-05-12T14:23:15.989Z,5.70
2023-05-12T14:25:42.751Z,2.40
2023-05-12T14:28:09.583Z,3.30
2023-05-12T14:30:36.982Z,5.20
2023-05-12T14:33:03.936Z,3.30
2023-05-12T14:35:31.491Z,3.70
2023-05-12T14:37:58.234Z,3.20
2023-05-12T14:40:26.289Z,1.80
2023-05-12T14:42:54.076Z,4.60
2023-05-12T14:45:21.170Z,3.00
2023-05-12T14:47:48.610Z,6.80
2023-05-12T14:50:15.478Z,2.00
2023-05-12T14:52:42.325Z,3.90
2023-05-12T14:55:11.514Z,4.90
2023-05-12T14:57:39.111Z,6.20
2023-05-12T15:00:12.497Z,5.60
2023-05-12T15:02:40.770Z,6.20
2023-05-12T15:05:36.326Z,6.10
2023-05-12T15:08:10.015Z,5.50
2023-05-12T15:10:36.783Z,3.00
2023-05-12T15:13:03.666Z,5.00
2023-05-12T15:15:32.493Z,29.60
2023-05-12T15:17:59.677Z,15.00
2023-05-12T15:20:26.812Z,6.10
2023-05-12T15:22:53.882Z,13.20
2023-05-12T15:25:20.823Z,5.10
2023-05-12T15:27:47.734Z,3.60
2023-05-12T15:30:15.174Z,8.50
2023-05-12T15:32:42.250Z,12.90
2023-05-12T15:35:09.190Z,4.80
2023-05-12T15:37:36.264Z,10.70
2023-05-12T15:40:03.400Z,5.20
2023-05-12T15:42:33.312Z,11.30
2023-05-12T15:45:00.475Z,9.40
2023-05-12T15:47:27.451Z,7.80
2023-05-12T15:49:54.224Z,7.90
2023-05-12T15:52:21.263Z,7.40
2023-05-12T15:54:48.030Z,4.20
2023-05-12T15:57:14.738Z,6.50
2023-05-12T15:59:41.681Z,4.10
2023-05-12T16:02:09.707Z,5.70
2023-05-12T16:04:36.976Z,3.80
2023-05-12T16:07:03.938Z,5.70
2023-05-12T16:09:31.417Z,14.00
2023-05-12T16:11:58.881Z,6.50
2023-05-12T16:14:25.844Z,7.40
2023-05-12T16:16:54.051Z,5.60
2023-05-12T16:19:20.942Z,5.10
2023-05-12T16:21:48.454Z,7.70
2023-05-12T16:24:15.218Z,12.60
2023-05-12T16:26:41.953Z,13.50
2023-05-12T16:29:08.694Z,8.60
2023-05-12T16:31:36.097Z,8.90
2023-05-12T16:34:03.074Z,17.10
2023-05-12T16:36:31.851Z,7.10
2023-05-12T16:38:59.106Z,9.90
2023-05-12T16:41:28.589Z,13.70
2023-05-12T16:43:56.168Z,13.20
2023-05-12T16:46:23.780Z,13.50
2023-05-12T16:48:50.618Z,17.50
2023-05-12T16:51:17.345Z,26.10
2023-05-12T16:53:44.383Z,25.70
2023-05-12T16:56:11.265Z,26.60
2023-05-12T16:58:38.074Z,36.80
2023-05-12T17:01:05.013Z,30.50
2023-05-12T17:03:32.098Z,16.70
2023-05-12T17:05:58.975Z,29.80
2023-05-12T17:08:25.764Z,24.90
2023-05-12T17:10:52.717Z,25.00
2023-05-12T17:13:20.731Z,35.50
2023-05-12T17:15:47.618Z,40.00
2023-05-12T17:18:14.873Z,35.90
2023-05-12T17:20:41.814Z,35.50
2023-05-12T17:23:08.731Z,20.70
2023-05-12T17:25:37.143Z,11.90
2023-05-12T17:30:31.435Z,27.00
2023-05-12T17:32:58.312Z,21.50
2023-05-12T17:35:25.103Z,30.00
2023-05-12T17:37:54.567Z,36.20
2023-05-12T17:40:21.643Z,31.30
2023-05-12T17:42:49.719Z,38.80
2023-05-12T17:45:16.743Z,43.00
2023-05-12T17:47:48.557Z,31.60
2023-05-12T17:50:15.782Z,30.50
2023-05-12T17:52:43.278Z,23.30
2023-05-12T17:55:12.147Z,27.80
2023-05-12T17:57:39.550Z,20.80
2023-05-12T18:00:09.746Z,30.00
2023-05-12T18:02:44.628Z,19.70
2023-05-12T18:05:11.889Z,32.70
2023-05-12T18:07:38.810Z,38.60
2023-05-12T18:10:09.250Z,45.50
2023-05-12T18:12:37.268Z,48.80
2023-05-12T18:15:04.769Z,67.40
2023-05-12T18:17:32.145Z,45.10
2023-05-12T18:20:00.496Z,61.30
2023-05-12T18:22:27.442Z,85.30
2023-05-12T18:24:54.519Z,80.60
2023-05-12T18:27:21.400Z,82.30
2023-05-12T18:29:48.210Z,76.50
2023-05-12T18:32:15.334Z,71.50
2023-05-12T18:34:46.028Z,65.00
2023-05-12T18:37:15.004Z,61.30
2023-05-12T18:39:42.728Z,61.10
2023-05-12T18:42:10.391Z,80.90
2023-05-12T18:44:39.809Z,115.20
2023-05-12T18:47:07.964Z,66.10
2023-05-12T18:49:36.200Z,105.70
2023-05-12T18:52:03.346Z,110.50
2023-05-12T18:54:30.232Z,130.70
2023-05-12T18:56:57.080Z,86.00
2023-05-12T18:59:23.927Z,99.20
2023-05-12T19:01:50.791Z,135.20
2023-05-12T19:04:19.029Z,99.20
2023-05-12T19:09:13.465Z,122.00
2023-05-12T19:11:40.192Z,143.00
2023-05-12T19:14:07.070Z,131.60
2023-05-12T19:16:35.676Z,167.00
2023-05-12T19:19:02.776Z,133.30
2023-05-12T19:21:31.730Z,137.30
2023-05-12T19:23:58.505Z,134.10
2023-05-12T19:26:26.348Z,132.10
2023-05-12T19:28:53.062Z,95.30
2023-05-12T19:31:20.057Z,133.80
2023-05-12T19:33:46.830Z,107.40
2023-05-12T19:36:14.235Z,135.70
2023-05-12T19:38:42.999Z,123.70
2023-05-12T19:41:10.127Z,108.30
2023-05-12T19:43:37.145Z,94.70
2023-05-12T19:46:04.014Z,93.90
2023-05-12T19:48:32.439Z,106.50
2023-05-12T19:50:59.923Z,121.60
2023-05-12T19:53:26.734Z,138.30
2023-05-12T19:55:53.464Z,137.20
2023-05-12T19:58:20.579Z,154.90
2023-05-12T20:00:47.943Z,147.90
2023-05-12T20:03:15.974Z,165.30
2023-05-12T20:05:44.018Z,195.90
2023-05-12T20:08:12.128Z,245.30
2023-05-12T20:10:40.110Z,242.40
2023-05-12T20:13:07.010Z,231.00
2023-05-12T20:15:33.900Z,237.50
2023-05-12T20:18:00.872Z,227.70
2023-05-12T20:20:28.099Z,259.90
2023-05-12T20:22:55.427Z,277.90
2023-05-12T20:25:22.568Z,282.80
2023-05-12T20:27:50.309Z,283.00
2023-05-12T20:30:17.080Z,204.50
2023-05-12T20:32:45.195Z,123.00
2023-05-12T20:35:12.333Z,154.10
2023-05-12T20:37:40.571Z,130.10
2023-05-12T20:40:08.607Z,52.00
2023-05-12T20:42:37.085Z,43.40
2023-05-12T20:45:04.136Z,46.00
2023-05-12T20:47:33.708Z,34.00
2023-05-12T20:50:04.873Z,45.60
2023-05-12T20:52:39.368Z,41.40
2023-05-12T20:55:07.255Z,52.90
2023-05-12T20:57:34.722Z,63.20
2023-05-12T21:00:01.534Z,78.60
2023-05-12T21:02:29.415Z,63.60
2023-05-12T21:04:56.871Z,57.20
2023-05-12T21:07:23.604Z,44.60
2023-05-12T21:09:50.554Z,36.80
2023-05-12T21:12:17.984Z,45.70
2023-05-12T21:14:45.012Z,32.20
2023-05-12T21:17:12.438Z,38.00
2023-05-12T21:19:39.701Z,39.10
2023-05-12T21:22:07.010Z,44.00
2023-05-12T21:24:36.820Z,67.10
2023-05-12T21:27:06.835Z,59.20
2023-05-12T21:29:33.846Z,58.90
2023-05-12T21:32:00.659Z,52.80
2023-05-12T21:34:27.593Z,83.20
2023-05-12T21:36:54.339Z,82.40
2023-05-12T21:39:21.309Z,64.90
2023-05-12T21:41:49.933Z,67.10
2023-05-12T21:44:16.732Z,70.30
2023-05-12T21:46:43.569Z,65.20
2023-05-12T21:49:10.425Z,81.80
2023-05-12T21:51:37.110Z,76.50
2023-05-12T21:54:03.877Z,79.90
2023-05-12T21:56:30.808Z,66.10
2023-05-12T21:58:57.630Z,66.50
2023-05-12T22:01:24.463Z,73.10
2023-05-12T22:03:51.333Z,65.90
2023-05-12T22:06:18.530Z,67.90
2023-05-12T22:08:45.451Z,106.50
2023-05-12T22:11:12.362Z,156.50
2023-05-12T22:13:39.159Z,156.70
2023-05-12T22:16:06.201Z,116.60
2023-05-12T22:18:34.555Z,72.70
2023-05-12T22:21:01.322Z,38.60
2023-05-12T22:23:28.918Z,37.70
2023-05-12T22:25:55.967Z,39.40
2023-05-12T22:28:22.906Z,84.00
2023-05-12T22:30:50.820Z,55.30
2023-05-12T22:33:17.678Z,62.80
2023-05-12T22:35:44.700Z,55.80
2023-05-12T22:38:12.106Z,75.60
2023-05-12T22:40:42.342Z,53.30
2023-05-12T22:43:09.170Z,63.00
2023-05-12T22:45:35.986Z,76.50
2023-05-12T22:48:02.957Z,77.60
2023-05-12T22:50:29.887Z,53.10
2023-05-12T22:52:57.505Z,108.80
2023-05-12T22:55:29.967Z,108.70
2023-05-12T22:57:57.504Z,62.20
2023-05-12T23:00:24.267Z,74.60
2023-05-12T23:02:51.345Z,63.10
2023-05-12T23:05:18.369Z,60.10
2023-05-12T23:07:47.300Z,34.10
2023-05-12T23:10:14.376Z,60.10
2023-05-12T23:12:41.742Z,88.50
2023-05-12T23:15:08.732Z,109.60
2023-05-12T23:17:35.801Z,119.40
2023-05-12T23:20:02.799Z,121.20
2023-05-12T23:22:29.980Z,90.80
2023-05-12T23:24:57.722Z,117.90
2023-05-12T23:27:25.373Z,110.50
2023-05-12T23:29:52.698Z,109.70
2023-05-12T23:32:19.803Z,95.10
2023-05-12T23:34:46.630Z,93.50
2023-05-12T23:37:13.461Z,107.80
2023-05-12T23:39:40.937Z,97.70
2023-05-12T23:42:07.744Z,130.40
2023-05-12T23:44:34.476Z,119.40
2023-05-12T23:47:01.556Z,128.40
2023-05-12T23:49:28.452Z,104.80
2023-05-12T23:51:55.464Z,90.90
2023-05-12T23:54:22.239Z,125.80
2023-05-12T23:56:48.989Z,110.60
2023-05-12T23:59:15.946Z,132.50
